createdAt,value
2022-12-04T00:02:21.076Z,102816.73
2022-12-04T00:04:52.446Z,102807.91
2022-12-04T00:07:23.343Z,102811.42
2022-12-04T00:09:54.364Z,102824.71
2022-12-04T00:12:25.820Z,102814.45
2022-12-04T00:17:29.109Z,102819.73
2022-12-04T00:20:00.118Z,102816.22
2022-12-04T00:22:31.534Z,102821.88
2022-12-04T00:25:02.443Z,102824.16
2022-12-04T00:27:33.464Z,102818.89
2022-12-04T00:30:04.386Z,102817.80
2022-12-04T00:32:35.341Z,102822.69
2022-12-04T00:35:06.718Z,102818.00
2022-12-04T00:37:37.730Z,102818.70
2022-12-04T00:40:08.962Z,102822.22
2022-12-04T00:42:39.806Z,102824.35
2022-12-04T00:45:11.242Z,102821.26
2022-12-04T00:47:42.110Z,102814.01
2022-12-04T00:50:13.110Z,102819.48
2022-12-04T00:52:44.451Z,102812.33
2022-12-04T00:55:15.326Z,102816.45
2022-12-04T00:57:46.528Z,102814.80
2022-12-04T01:00:18.636Z,102820.61
2022-12-04T01:02:49.791Z,102815.66
2022-12-04T01:05:21.037Z,102818.89
2022-12-04T01:07:51.985Z,102818.89
2022-12-04T01:10:23.088Z,102827.17
2022-12-04T01:12:53.944Z,102818.44
2022-12-04T01:15:24.940Z,102824.87
2022-12-04T01:17:55.710Z,102822.21
2022-12-04T01:20:27.071Z,102823.20
2022-12-04T01:22:57.903Z,102831.64
2022-12-04T01:25:28.773Z,102831.42
2022-12-04T01:27:59.631Z,102826.72
2022-12-04T01:30:30.323Z,102830.88
2022-12-04T01:33:01.466Z,102832.73
2022-12-04T01:35:32.289Z,102829.17
2022-12-04T01:38:03.391Z,102819.84
2022-12-04T01:40:35.364Z,102825.81
2022-12-04T01:43:07.708Z,102829.83
2022-12-04T01:45:40.944Z,102826.72
2022-12-04T01:48:31.889Z,102827.41
2022-12-04T01:51:04.237Z,102822.80
2022-12-04T01:53:36.711Z,102836.39
2022-12-04T01:56:08.473Z,102833.63
2022-12-04T01:58:40.747Z,102834.23
2022-12-04T02:01:11.927Z,102840.94
2022-12-04T02:03:42.950Z,102833.67
2022-12-04T02:06:14.046Z,102831.22
2022-12-04T02:08:45.184Z,102833.70
2022-12-04T02:11:29.414Z,102841.37
2022-12-04T02:14:18.628Z,102843.52
2022-12-04T02:16:50.886Z,102842.76
2022-12-04T02:19:29.545Z,102838.61
2022-12-04T02:22:00.625Z,102829.87
2022-12-04T02:24:49.756Z,102826.82
2022-12-04T02:27:19.129Z,102826.06
2022-12-04T02:29:54.966Z,102835.08
2022-12-04T02:32:30.527Z,102842.47
2022-12-04T02:35:02.813Z,102852.11
2022-12-04T02:37:47.101Z,102843.34
2022-12-04T02:40:22.607Z,102841.78
2022-12-04T02:43:03.982Z,102844.64
2022-12-04T02:45:36.190Z,102845.12
2022-12-04T02:48:08.890Z,102845.83
2022-12-04T02:50:41.450Z,102845.99
2022-12-04T02:53:17.114Z,102841.98
2022-12-04T02:55:49.356Z,102842.47
2022-12-04T02:58:21.813Z,102845.83
2022-12-04T03:00:54.115Z,102839.92
2022-12-04T03:03:26.633Z,102843.17
2022-12-04T03:05:58.855Z,102853.55
2022-12-04T03:08:34.111Z,102851.59
2022-12-04T03:11:05.338Z,102851.22
2022-12-04T03:13:46.881Z,102854.46
2022-12-04T03:16:19.225Z,102854.84
2022-12-04T03:18:54.485Z,102853.08
2022-12-04T03:21:26.726Z,102859.74
2022-12-04T03:23:59.132Z,102856.02
2022-12-04T03:26:31.444Z,102861.13
2022-12-04T03:29:03.736Z,102859.57
2022-12-04T03:31:38.722Z,102856.43
2022-12-04T03:34:10.973Z,102853.77
2022-12-04T03:36:43.417Z,102856.70
2022-12-04T03:39:19.205Z,102859.63
2022-12-04T03:42:03.440Z,102858.67
2022-12-04T03:44:35.941Z,102855.32
2022-12-04T03:47:11.451Z,102863.19
2022-12-04T03:50:01.755Z,102868.09
2022-12-04T03:52:40.129Z,102870.36
2022-12-04T03:55:18.474Z,102860.41
2022-12-04T03:57:51.169Z,102873.77
2022-12-04T04:00:23.170Z,102874.92
2022-12-04T04:03:01.470Z,102871.68
2022-12-04T04:05:34.159Z,102878.26
2022-12-04T04:08:23.881Z,102881.02
2022-12-04T04:10:56.682Z,102884.18
2022-12-04T04:13:46.560Z,102885.62
2022-12-04T04:16:36.763Z,102889.08
2022-12-04T04:19:26.836Z,102889.08
2022-12-04T04:22:17.214Z,102891.84
2022-12-04T04:24:52.562Z,102891.95
2022-12-04T04:27:23.478Z,102880.84
2022-12-04T04:29:54.879Z,102884.57
2022-12-04T04:32:33.751Z,102879.89
2022-12-04T04:35:06.355Z,102886.33
2022-12-04T04:37:38.736Z,102890.36
2022-12-04T04:40:17.615Z,102892.81
2022-12-04T04:42:50.040Z,102894.57
2022-12-04T04:45:22.763Z,102893.70
2022-12-04T04:47:57.859Z,102888.70
2022-12-04T04:50:29.425Z,102900.68
2022-12-04T04:53:02.304Z,102901.65
2022-12-04T04:55:34.646Z,102909.89
2022-12-04T04:58:13.343Z,102909.50
2022-12-04T05:00:48.573Z,102910.86
2022-12-04T05:03:19.580Z,102913.42
2022-12-04T05:05:50.610Z,102910.66
2022-12-04T05:08:21.619Z,102908.67
2022-12-04T05:10:52.804Z,102902.49
2022-12-04T05:13:23.619Z,102903.25
2022-12-04T05:16:02.605Z,102908.34
2022-12-04T05:18:34.327Z,102908.92
2022-12-04T05:21:09.275Z,102906.30
2022-12-04T05:23:41.125Z,102912.95
2022-12-04T05:26:12.390Z,102901.77
2022-12-04T05:28:43.487Z,102907.55
2022-12-04T05:31:15.095Z,102903.89
2022-12-04T05:33:46.210Z,102904.89
2022-12-04T05:36:17.516Z,102905.00
2022-12-04T05:38:48.626Z,102912.73
2022-12-04T05:41:19.890Z,102910.29
2022-12-04T05:43:51.128Z,102920.03
2022-12-04T05:46:21.991Z,102918.88
2022-12-04T05:48:52.880Z,102915.08
2022-12-04T05:51:23.705Z,102917.16
2022-12-04T05:53:55.081Z,102923.91
2022-12-04T05:56:26.191Z,102925.78
2022-12-04T05:58:57.292Z,102922.66
2022-12-04T06:01:28.653Z,102921.42
2022-12-04T06:03:59.859Z,102922.71
2022-12-04T06:06:30.771Z,102919.07
2022-12-04T06:09:02.251Z,102929.60
2022-12-04T06:11:34.918Z,102932.75
2022-12-04T06:14:06.850Z,102926.48
2022-12-04T06:16:39.318Z,102927.66
2022-12-04T06:19:11.654Z,102924.72
2022-12-04T06:21:43.435Z,102929.83
2022-12-04T06:24:15.748Z,102923.53
2022-12-04T06:27:18.651Z,102925.70
2022-12-04T06:29:19.400Z,102926.08
2022-12-04T06:31:50.669Z,102931.20
2022-12-04T06:34:22.130Z,102928.12
2022-12-04T06:36:53.527Z,102931.87
2022-12-04T06:39:24.837Z,102931.28
2022-12-04T06:41:56.476Z,102927.30
2022-12-04T06:44:27.202Z,102929.95
2022-12-04T06:47:00.944Z,102924.14
2022-12-04T06:49:31.034Z,102934.47
2022-12-04T06:52:02.202Z,102935.13
2022-12-04T06:54:33.476Z,102934.83
2022-12-04T06:57:04.325Z,102935.83
2022-12-04T06:59:35.623Z,102932.93
2022-12-04T07:02:06.715Z,102939.50
2022-12-04T07:04:37.885Z,102932.27
2022-12-04T07:07:11.752Z,102931.97
2022-12-04T07:09:43.045Z,102934.91
2022-12-04T07:12:14.784Z,102945.46
2022-12-04T07:14:46.249Z,102939.39
2022-12-04T07:17:18.099Z,102942.67
2022-12-04T07:19:49.248Z,102944.42
2022-12-04T07:22:20.013Z,102947.12
2022-12-04T07:24:51.286Z,102945.69
2022-12-04T07:27:22.138Z,102946.45
2022-12-04T07:29:54.087Z,102946.98
2022-12-04T07:32:25.384Z,102953.22
2022-12-04T07:34:56.869Z,102954.34
2022-12-04T07:37:28.304Z,102951.41
2022-12-04T07:39:59.593Z,102953.22
2022-12-04T07:42:31.982Z,102948.08
2022-12-04T07:45:03.370Z,102957.14
2022-12-04T07:47:35.951Z,102948.64
2022-12-04T07:50:07.408Z,102953.78
2022-12-04T07:52:39.447Z,102958.94
2022-12-04T07:55:10.449Z,102957.16
2022-12-04T07:57:41.859Z,102956.17
2022-12-04T08:00:13.105Z,102958.42
2022-12-04T08:02:44.049Z,102959.61
2022-12-04T08:05:14.946Z,102959.43
2022-12-04T08:07:46.190Z,102960.25
2022-12-04T08:10:17.344Z,102958.17
2022-12-04T08:12:48.405Z,102960.83
2022-12-04T08:15:19.340Z,102953.19
2022-12-04T08:17:50.499Z,102950.35
2022-12-04T08:20:21.858Z,102947.11
2022-12-04T08:22:53.209Z,102952.75
2022-12-04T08:25:24.424Z,102951.14
2022-12-04T08:27:55.445Z,102956.97
2022-12-04T08:30:27.251Z,102956.34
2022-12-04T08:32:58.901Z,102952.37
2022-12-04T08:35:30.513Z,102954.66
2022-12-04T08:38:02.025Z,102953.49
2022-12-04T08:40:33.616Z,102958.84
2022-12-04T08:43:04.610Z,102953.30
2022-12-04T08:45:36.185Z,102956.34
2022-12-04T08:48:07.983Z,102954.80
2022-12-04T08:50:40.653Z,102960.86
2022-12-04T08:53:11.626Z,102950.23
2022-12-04T08:55:42.638Z,102960.41
2022-12-04T08:58:13.648Z,102952.72
2022-12-04T09:00:45.340Z,102957.22
2022-12-04T09:03:22.617Z,102956.80
2022-12-04T09:05:52.922Z,102954.81
2022-12-04T09:08:23.818Z,102951.27
2022-12-04T09:10:54.741Z,102945.23
2022-12-04T09:13:26.247Z,102946.94
2022-12-04T09:15:57.778Z,102951.09
2022-12-04T09:18:28.923Z,102949.16
2022-12-04T09:21:01.449Z,102953.44
2022-12-04T09:23:32.954Z,102955.45
2022-12-04T09:26:04.620Z,102947.97
2022-12-04T09:28:36.805Z,102951.44
2022-12-04T09:31:08.077Z,102948.78
2022-12-04T09:33:39.575Z,102947.24
2022-12-04T09:36:12.228Z,102944.67
2022-12-04T09:38:44.817Z,102945.57
2022-12-04T09:41:29.378Z,102942.36
2022-12-04T09:44:08.297Z,102946.59
2022-12-04T09:46:41.113Z,102943.30
2022-12-04T09:49:20.029Z,102941.63
2022-12-04T09:51:53.385Z,102944.92
2022-12-04T09:54:26.553Z,102936.33
2022-12-04T09:57:04.345Z,102947.41
2022-12-04T09:59:36.007Z,102947.24
2022-12-04T10:02:08.693Z,102945.57
2022-12-04T10:04:39.999Z,102950.45
2022-12-04T10:07:18.995Z,102944.54
2022-12-04T10:10:06.122Z,102945.31
2022-12-04T10:12:56.726Z,102946.21
2022-12-04T10:15:29.228Z,102942.61
2022-12-04T10:18:01.757Z,102939.06
2022-12-04T10:20:50.493Z,102931.27
2022-12-04T10:23:40.982Z,102926.86
2022-12-04T10:26:13.413Z,102928.48
2022-12-04T10:28:48.325Z,102921.80
2022-12-04T10:31:19.170Z,102926.22
2022-12-04T10:33:52.284Z,102915.86
2022-12-04T10:36:25.935Z,102924.45
2022-12-04T10:38:58.591Z,102921.08
2022-12-04T10:41:46.532Z,102916.92
2022-12-04T10:44:19.699Z,102911.06
2022-12-04T10:46:54.230Z,102916.20
2022-12-04T10:49:30.999Z,102912.09
2022-12-04T10:52:02.406Z,102913.76
2022-12-04T10:54:38.366Z,102910.50
2022-12-04T10:57:11.222Z,102912.09
2022-12-04T10:59:43.745Z,102911.19
2022-12-04T11:02:22.849Z,102911.28
2022-12-04T11:04:56.377Z,102905.19
2022-12-04T11:07:31.814Z,102913.07
2022-12-04T11:10:07.313Z,102907.84
2022-12-04T11:12:39.174Z,102909.91
2022-12-04T11:15:11.496Z,102911.61
2022-12-04T11:17:42.946Z,102906.48
2022-12-04T11:20:18.426Z,102903.74
2022-12-04T11:22:51.614Z,102901.81
2022-12-04T11:25:25.231Z,102912.89
2022-12-04T11:27:58.072Z,102906.05
2022-12-04T11:30:31.101Z,102906.00
2022-12-04T11:33:04.033Z,102906.22
2022-12-04T11:35:35.796Z,102900.14
2022-12-04T11:38:12.455Z,102898.35
2022-12-04T11:40:50.512Z,102896.59
2022-12-04T11:43:22.126Z,102898.22
2022-12-04T11:45:57.161Z,102898.30
2022-12-04T11:48:30.019Z,102890.26
2022-12-04T11:51:17.568Z,102889.22
2022-12-04T11:53:50.927Z,102894.19
2022-12-04T11:56:24.865Z,102898.42
2022-12-04T11:59:06.582Z,102890.41
2022-12-04T12:01:40.493Z,102886.73
2022-12-04T12:04:14.222Z,102892.50
2022-12-04T12:07:03.319Z,102889.59
2022-12-04T12:09:35.793Z,102891.20
2022-12-04T12:12:08.147Z,102888.64
2022-12-04T12:14:41.281Z,102883.02
2022-12-04T12:17:24.033Z,102893.02
2022-12-04T12:20:13.262Z,102895.41
2022-12-04T12:22:46.498Z,102891.45
2022-12-04T12:25:35.403Z,102886.09
2022-12-04T12:28:19.795Z,102886.09
2022-12-04T12:31:08.712Z,102895.67
2022-12-04T12:33:58.098Z,102887.70
2022-12-04T12:36:31.829Z,102890.75
2022-12-04T12:39:04.613Z,102892.16
2022-12-04T12:41:40.332Z,102901.27
2022-12-04T12:44:13.685Z,102893.59
2022-12-04T12:46:52.377Z,102898.20
2022-12-04T12:49:34.150Z,102887.86
2022-12-04T12:52:17.851Z,102893.08
2022-12-04T12:54:53.900Z,102894.50
2022-12-04T12:57:33.530Z,102897.41
2022-12-04T13:00:18.633Z,102892.71
2022-12-04T13:02:51.237Z,102900.16
2022-12-04T13:05:23.539Z,102905.18
2022-12-04T13:07:58.827Z,102900.95
2022-12-04T13:10:37.191Z,102907.41
2022-12-04T13:13:09.527Z,102907.73
2022-12-04T13:15:45.664Z,102906.30
2022-12-04T13:18:18.880Z,102897.37
2022-12-04T13:20:51.483Z,102893.23
2022-12-04T13:23:26.857Z,102895.32
2022-12-04T13:26:05.600Z,102904.70
2022-12-04T13:28:53.194Z,102898.23
2022-12-04T13:31:28.770Z,102897.08
2022-12-04T13:34:01.471Z,102901.94
2022-12-04T13:36:33.882Z,102901.66
2022-12-04T13:39:12.046Z,102914.00
2022-12-04T13:41:42.929Z,102909.48
2022-12-04T13:44:15.397Z,102911.95
2022-12-04T13:46:51.088Z,102909.03
2022-12-04T13:49:25.234Z,102904.42
2022-12-04T13:51:57.229Z,102901.56
2022-12-04T13:54:32.722Z,102905.63
2022-12-04T13:57:17.062Z,102906.59
2022-12-04T13:59:48.987Z,102904.53
2022-12-04T14:02:24.273Z,102899.20
2022-12-04T14:04:56.889Z,102894.49
2022-12-04T14:07:29.269Z,102904.23
2022-12-04T14:10:03.267Z,102904.63
2022-12-04T14:12:35.518Z,102904.92
2022-12-04T14:15:22.773Z,102907.58
2022-12-04T14:18:00.980Z,102908.28
2022-12-04T14:20:34.159Z,102904.17
2022-12-04T14:23:20.123Z,102904.00
2022-12-04T14:25:51.420Z,102904.80
2022-12-04T14:28:26.761Z,102903.47
2022-12-04T14:31:08.211Z,102895.97
2022-12-04T14:33:47.789Z,102895.07
2022-12-04T14:36:25.078Z,102895.77
2022-12-04T14:38:57.307Z,102894.87
2022-12-04T14:41:28.810Z,102898.83
2022-12-04T14:44:00.235Z,102893.41
2022-12-04T14:46:33.375Z,102897.27
2022-12-04T14:49:09.149Z,102891.25
2022-12-04T14:51:57.841Z,102899.72
2022-12-04T14:54:36.460Z,102891.58
2022-12-04T14:57:26.834Z,102900.02
2022-12-04T14:59:58.353Z,102895.41
2022-12-04T15:02:30.863Z,102893.34
2022-12-04T15:05:03.409Z,102892.34
2022-12-04T15:07:35.140Z,102888.89
2022-12-04T15:10:25.398Z,102895.53
2022-12-04T15:12:56.444Z,102891.05
2022-12-04T15:15:28.990Z,102895.70
2022-12-04T15:18:07.369Z,102886.70
2022-12-04T15:20:39.915Z,102886.44
2022-12-04T15:23:12.728Z,102885.08
2022-12-04T15:25:51.227Z,102888.13
2022-12-04T15:28:29.235Z,102886.53
2022-12-04T15:31:02.237Z,102882.22
2022-12-04T15:33:37.538Z,102886.47
2022-12-04T15:36:09.844Z,102884.67
2022-12-04T15:38:41.011Z,102880.25
2022-12-04T15:41:32.633Z,102884.41
2022-12-04T15:44:04.767Z,102880.85
2022-12-04T15:46:38.222Z,102888.63
2022-12-04T15:49:11.124Z,102888.03
2022-12-04T15:51:42.159Z,102888.92
2022-12-04T15:54:18.045Z,102891.18
2022-12-04T15:57:00.007Z,102890.48
2022-12-04T15:59:32.333Z,102885.17
2022-12-04T16:02:10.659Z,102892.94
2022-12-04T16:04:45.552Z,102890.78
2022-12-04T16:07:23.299Z,102898.16
2022-12-04T16:10:01.242Z,102898.05
2022-12-04T16:12:30.407Z,102898.75
2022-12-04T16:15:01.574Z,102895.13
2022-12-04T16:17:33.428Z,102893.73
2022-12-04T16:20:05.703Z,102887.95
2022-12-04T16:22:37.402Z,102893.06
2022-12-04T16:25:08.619Z,102889.91
2022-12-04T16:27:39.731Z,102895.42
2022-12-04T16:30:11.451Z,102886.89
2022-12-04T16:32:42.509Z,102889.55
2022-12-04T16:35:14.814Z,102885.69
2022-12-04T16:37:45.847Z,102892.69
2022-12-04T16:40:17.206Z,102897.80
2022-12-04T16:42:48.009Z,102876.25
2022-12-04T16:45:32.497Z,102882.37
2022-12-04T16:48:03.331Z,102882.27
2022-12-04T16:50:34.611Z,102869.75
2022-12-04T16:53:06.034Z,102885.89
2022-12-04T16:55:38.907Z,102883.82
2022-12-04T16:58:10.011Z,102878.71
2022-12-04T17:00:44.047Z,102892.67
2022-12-04T17:03:20.171Z,102882.17
2022-12-04T17:05:51.836Z,102888.25
2022-12-04T17:08:22.937Z,102886.39
2022-12-04T17:10:54.459Z,102891.71
2022-12-04T17:13:25.753Z,102888.67
2022-12-04T17:15:58.588Z,102883.25
2022-12-04T17:18:29.623Z,102889.53
2022-12-04T17:21:00.702Z,102883.84
2022-12-04T17:23:32.400Z,102884.63
2022-12-04T17:26:04.671Z,102880.80
2022-12-04T17:28:36.572Z,102885.22
2022-12-04T17:31:09.030Z,102881.49
2022-12-04T17:33:40.389Z,102882.84
2022-12-04T17:36:16.028Z,102885.39
2022-12-04T17:38:47.601Z,102880.80
2022-12-04T17:41:18.875Z,102885.50
2022-12-04T17:43:49.968Z,102883.31
2022-12-04T17:46:24.586Z,102885.22
2022-12-04T17:48:57.026Z,102875.00
2022-12-04T17:51:28.941Z,102874.58
2022-12-04T17:53:59.947Z,102874.20
2022-12-04T17:56:31.001Z,102867.81
2022-12-04T17:59:02.413Z,102866.53
2022-12-04T18:01:34.089Z,102865.33
2022-12-04T18:04:06.732Z,102862.59
2022-12-04T18:06:39.116Z,102852.66
2022-12-04T18:09:11.354Z,102851.96
2022-12-04T18:11:44.067Z,102852.44
2022-12-04T18:14:18.282Z,102850.59
2022-12-04T18:16:54.444Z,102853.34
2022-12-04T18:19:27.347Z,102854.92
2022-12-04T18:21:58.755Z,102847.16
2022-12-04T18:24:30.083Z,102851.75
2022-12-04T18:27:01.038Z,102857.47
2022-12-04T18:29:32.003Z,102857.84
2022-12-04T18:32:02.940Z,102852.16
2022-12-04T18:34:34.018Z,102853.10
2022-12-04T18:37:05.003Z,102850.34
2022-12-04T18:39:35.971Z,102859.86
2022-12-04T18:42:07.374Z,102848.58
2022-12-04T18:44:38.285Z,102855.66
2022-12-04T18:47:09.196Z,102855.08
2022-12-04T18:49:40.847Z,102846.45
2022-12-04T18:52:12.810Z,102850.98
2022-12-04T18:54:44.413Z,102850.19
2022-12-04T18:57:16.039Z,102838.80
2022-12-04T18:59:49.208Z,102840.55
2022-12-04T19:02:20.972Z,102847.21
2022-12-04T19:04:52.815Z,102842.53
2022-12-04T19:07:24.537Z,102842.00
2022-12-04T19:10:20.729Z,102832.48
2022-12-04T19:12:29.711Z,102827.95
2022-12-04T19:15:01.443Z,102834.16
2022-12-04T19:17:33.141Z,102838.16
2022-12-04T19:20:05.238Z,102833.05
2022-12-04T19:22:36.015Z,102828.53
2022-12-04T19:25:08.662Z,102826.98
2022-12-04T19:27:40.202Z,102826.19
2022-12-04T19:30:11.813Z,102826.77
2022-12-04T19:32:43.623Z,102825.01
2022-12-04T19:35:15.217Z,102833.27
2022-12-04T19:37:52.409Z,102833.05
2022-12-04T19:40:20.208Z,102828.84
2022-12-04T19:42:51.763Z,102828.16
2022-12-04T19:45:23.488Z,102825.72
2022-12-04T19:47:55.136Z,102836.72
2022-12-04T19:50:26.890Z,102831.30
2022-12-04T19:52:58.729Z,102826.19
2022-12-04T19:55:30.356Z,102823.25
2022-12-04T19:58:03.049Z,102812.94
2022-12-04T20:00:35.086Z,102817.03
2022-12-04T20:03:06.840Z,102812.72
2022-12-04T20:05:38.344Z,102821.85
2022-12-04T20:10:40.702Z,102812.01
2022-12-04T20:13:12.571Z,102819.66
2022-12-04T20:15:44.710Z,102820.23
2022-12-04T20:18:16.300Z,102815.45
2022-12-04T20:20:49.760Z,102810.36
2022-12-04T20:23:21.539Z,102816.32
2022-12-04T20:25:53.037Z,102817.51
2022-12-04T20:31:24.510Z,102823.86
2022-12-04T20:33:57.402Z,102820.05
2022-12-04T20:36:30.074Z,102817.33
2022-12-04T20:39:01.670Z,102818.30
2022-12-04T20:41:33.752Z,102818.98
2022-12-04T20:44:06.494Z,102806.59
2022-12-04T20:46:38.839Z,102811.40
2022-12-04T20:49:17.214Z,102812.08
2022-12-04T20:51:45.478Z,102810.22
2022-12-04T20:54:18.773Z,102812.08
2022-12-04T20:56:52.981Z,102820.20
2022-12-04T20:59:25.368Z,102815.09
2022-12-04T21:01:56.917Z,102816.86
2022-12-04T21:04:28.669Z,102820.41
2022-12-04T21:07:00.383Z,102820.30
2022-12-04T21:09:31.978Z,102816.75
2022-12-04T21:12:05.991Z,102818.62
2022-12-04T21:14:55.716Z,102821.17
2022-12-04T21:17:27.132Z,102817.08
2022-12-04T21:20:04.172Z,102807.45
2022-12-04T21:22:32.368Z,102811.40
2022-12-04T21:25:04.225Z,102814.20
2022-12-04T21:27:34.845Z,102807.66
2022-12-04T21:30:06.884Z,102802.56
2022-12-04T21:32:38.833Z,102805.69
2022-12-04T21:35:10.903Z,102799.01
2022-12-04T21:37:42.547Z,102791.93
2022-12-04T21:40:14.072Z,102797.36
2022-12-04T21:42:45.459Z,102788.92
2022-12-04T21:45:16.757Z,102783.81
2022-12-04T21:47:47.944Z,102774.59
2022-12-04T21:50:19.658Z,102779.61
2022-12-04T21:52:50.500Z,102775.37
2022-12-04T21:55:21.532Z,102777.92
2022-12-04T21:57:52.424Z,102779.61
2022-12-04T22:00:23.942Z,102773.03
2022-12-04T22:02:55.068Z,102768.05
2022-12-04T22:05:26.022Z,102773.03
2022-12-04T22:07:57.152Z,102769.02
2022-12-04T22:10:28.026Z,102767.57
2022-12-04T22:12:58.927Z,102767.28
2022-12-04T22:15:29.813Z,102755.89
2022-12-04T22:18:00.672Z,102755.00
2022-12-04T22:20:31.429Z,102749.73
2022-12-04T22:23:03.422Z,102745.00
2022-12-04T22:25:35.548Z,102743.35
2022-12-04T22:28:07.367Z,102732.94
2022-12-04T22:30:39.031Z,102744.72
2022-12-04T22:33:10.778Z,102736.07
2022-12-04T22:35:42.278Z,102739.41
2022-12-04T22:38:13.882Z,102735.27
2022-12-04T22:40:45.642Z,102734.59
2022-12-04T22:43:17.109Z,102743.35
2022-12-04T22:45:49.996Z,102741.59
2022-12-04T22:48:22.056Z,102742.66
2022-12-04T22:51:02.449Z,102741.29
2022-12-04T22:53:38.346Z,102736.08
2022-12-04T22:56:10.842Z,102727.56
2022-12-04T22:58:44.225Z,102730.98
2022-12-04T23:01:17.612Z,102718.63
2022-12-04T23:03:49.564Z,102716.73
2022-12-04T23:06:22.508Z,102726.55
2022-12-04T23:08:58.666Z,102724.80
2022-12-04T23:11:30.537Z,102725.66
2022-12-04T23:14:03.217Z,102723.00
2022-12-04T23:16:36.012Z,102731.66
2022-12-04T23:19:09.051Z,102727.03
2022-12-04T23:21:40.881Z,102722.61
2022-12-04T23:24:12.923Z,102721.72
2022-12-04T23:26:46.360Z,102722.40
2022-12-04T23:29:44.815Z,102717.41
2022-12-04T23:31:51.409Z,102720.85
2022-12-04T23:34:23.118Z,102718.20
2022-12-04T23:36:54.631Z,102714.96
2022-12-04T23:39:26.171Z,102705.25
2022-12-04T23:41:57.933Z,102711.52
2022-12-04T23:44:29.484Z,102711.41
2022-12-04T23:47:01.129Z,102712.02
2022-12-04T23:49:33.316Z,102714.06
2022-12-04T23:52:05.220Z,102706.13
2022-12-04T23:54:37.732Z,102695.83
2022-12-04T23:57:09.226Z,102703.58
2022-12-04T23:59:40.697Z,102694.76
